aviador You're here:

KLPC Decoded Metar

LOMPOC in CA, USA
Report Time2018-02-25 14:56:00
UTC Time2018-02-25 15:11:39
Flight Rules vfr VFR
Wind070° at 03 kt
W.Decomp.*RWY 07: 2.9 kt HW 0.8 kt LCW
W.Rank070° ranks 13
Current wind is below 070° avg. (3.8)
Visibility9999 m
Phenomena:N/A
Clouds:N/A
Expected CloudBase > 1,600 ft AGL from Temp-Dew spread
CeilingNone
Temp04°C (ISA -11)
Dew Point00°C (75% RH)
AAT0.9°C
QNH1025 hPa
Density Alt-1,545 ft
Elevation89 ft
Report Wrong Elevation
Raw Report
METAR KLPC 251456Z AUTO 07003KT 10SM CLR 04/00 A3026 RMK AO2 SLP250
T00440000 53010=

Extra information for KLPC:More info

Metar Taf Metar & Taf Last 4 Metars F.Rules Stats Wind Profile Meteogram Temp Stats Airport Information Weather charts Add Link Nearby VenuesMetar ALERT Operation Metar Decoded Social comments

AIRNAV info for KLPC